Time;durP1;ratioP1;P1;durP2;ratioP2;P2;SDS_P1;SDS_P2;PMS_P1;PMS_P2;Temp;Humidity;BMP_temperature;BMP_pressure;BME280_temperature;BME280_humidity;BME280_pressure;Samples;Min_cycle;Max_cycle;Signal;HPM_P1;HPM_P2
2020/12/28 00:01:42;;;;;;;0.80;0.40;;;30.30;54.90;;;;;;5070010;28;20380;-83
2020/12/28 00:04:09;;;;;;;2.22;0.40;;;30.60;51.90;;;;;;5069532;28;20412;-83
2020/12/28 00:06:37;;;;;;;1.63;0.40;;;30.80;55.40;;;;;;5052046;28;20788;-82
2020/12/28 00:09:06;;;;;;;1.58;0.40;;;30.60;52.70;;;;;;5069948;28;20936;-82
2020/12/28 00:11:33;;;;;;;2.80;0.30;;;30.30;52.60;;;;;;5059296;28;21223;-83
2020/12/28 00:14:00;;;;;;;1.50;0.45;;;30.10;51.80;;;;;;5056769;28;20855;-82
2020/12/28 00:16:27;;;;;;;1.20;0.40;;;30.40;55.30;;;;;;5065930;28;20406;-82
2020/12/28 00:18:54;;;;;;;0.75;0.40;;;30.80;54.00;;;;;;5069596;28;20494;-82
2020/12/28 00:21:21;;;;;;;0.70;0.37;;;31.10;52.00;;;;;;5067334;28;20396;-82
2020/12/28 00:23:48;;;;;;;0.70;0.30;;;31.00;51.70;;;;;;5069973;28;20377;-81
2020/12/28 00:26:15;;;;;;;1.60;0.30;;;31.30;51.10;;;;;;5068101;28;20410;-84
2020/12/28 00:28:42;;;;;;;1.55;0.43;;;32.00;49.70;;;;;;5069004;28;20734;-82
2020/12/28 00:31:22;;;;;;;0.40;0.30;;;32.70;51.30;;;;;;5070923;28;20460;-81
2020/12/28 00:33:49;;;;;;;1.02;0.40;;;33.20;49.70;;;;;;5070396;28;20374;-82
2020/12/28 00:36:16;;;;;;;1.42;0.20;;;32.90;47.40;;;;;;5067978;28;20409;-82
2020/12/28 00:38:43;;;;;;;1.73;0.50;;;31.90;47.90;;;;;;5066022;28;20497;-82
2020/12/28 00:41:13;;;;;;;2.25;0.40;;;31.10;50.60;;;;;;5069029;28;20388;-82
2020/12/28 00:43:44;;;;;;;1.27;0.30;;;30.40;51.10;;;;;;5069361;28;20374;-82
2020/12/28 00:46:14;;;;;;;1.40;0.40;;;30.50;53.40;;;;;;5069185;28;20485;-82
2020/12/28 00:48:41;;;;;;;1.85;0.40;;;30.60;55.30;;;;;;5068337;28;20402;-83
2020/12/28 00:51:15;;;;;;;23.38;5.63;;;30.70;54.50;;;;;;5064163;28;20411;-83
2020/12/28 00:53:43;;;;;;;26.17;6.75;;;30.30;58.10;;;;;;5064311;28;20389;-83
2020/12/28 00:56:12;;;;;;;36.70;8.15;;;29.60;63.30;;;;;;5067032;28;20398;-82
2020/12/28 00:58:39;;;;;;;32.72;8.55;;;28.70;66.20;;;;;;5063477;28;20399;-82
2020/12/28 01:01:07;;;;;;;38.38;8.80;;;27.70;69.90;;;;;;5065975;28;20390;-82
2020/12/28 01:03:34;;;;;;;41.75;9.18;;;26.80;72.60;;;;;;5064960;28;20909;-81
2020/12/28 01:06:04;;;;;;;42.03;9.05;;;26.60;75.90;;;;;;5063768;28;20448;-82
2020/12/28 01:08:31;;;;;;;42.95;8.93;;;27.00;74.80;;;;;;5067833;28;20470;-82
2020/12/28 01:10:58;;;;;;;43.67;9.02;;;26.80;75.50;;;;;;5068908;28;20372;-83
2020/12/28 01:13:25;;;;;;;40.35;9.38;;;26.50;75.60;;;;;;5064193;28;20394;-82
2020/12/28 01:15:52;;;;;;;45.33;8.88;;;26.40;76.50;;;;;;5067285;28;20449;-82
2020/12/28 01:18:19;;;;;;;46.83;8.70;;;26.20;77.90;;;;;;5071779;28;20421;-81
2020/12/28 01:20:46;;;;;;;47.53;9.13;;;26.00;81.00;;;;;;5072075;28;20385;-83
2020/12/28 01:23:13;;;;;;;34.80;7.88;;;26.00;80.10;;;;;;5068651;28;20803;-82
2020/12/28 01:25:40;;;;;;;44.30;8.15;;;25.80;79.90;;;;;;5060938;28;20411;-82
2020/12/28 01:28:07;;;;;;;37.22;8.57;;;25.90;79.60;;;;;;5067623;28;20377;-82
2020/12/28 01:30:34;;;;;;;40.85;8.00;;;26.00;79.10;;;;;;5069110;28;20397;-82
2020/12/28 01:33:01;;;;;;;43.45;9.18;;;25.90;79.10;;;;;;5071099;28;20398;-80
2020/12/28 01:35:29;;;;;;;46.05;8.98;;;25.70;80.60;;;;;;5063217;28;20440;-82
2020/12/28 01:37:56;;;;;;;35.03;8.15;;;25.80;80.70;;;;;;5071878;28;20405;-81
2020/12/28 01:40:23;;;;;;;34.88;8.35;;;25.60;80.50;;;;;;5072111;28;20447;-82
2020/12/28 01:42:50;;;;;;;38.28;8.68;;;25.70;81.20;;;;;;5071782;28;20466;-81
2020/12/28 01:45:17;;;;;;;34.83;7.47;;;25.80;80.00;;;;;;5071997;28;20420;-82
2020/12/28 01:47:44;;;;;;;39.42;7.60;;;25.50;81.70;;;;;;5070895;28;20905;-82
2020/12/28 01:50:11;;;;;;;34.05;8.00;;;25.30;82.10;;;;;;5072166;28;20424;-81
2020/12/28 01:52:38;;;;;;;39.55;8.30;;;25.10;83.00;;;;;;5070771;28;20393;-82
2020/12/28 01:55:06;;;;;;;37.05;7.57;;;25.00;83.60;;;;;;5057773;28;20469;-82
2020/12/28 01:57:34;;;;;;;36.60;7.65;;;25.00;83.40;;;;;;5054143;28;20371;-82
2020/12/28 02:00:01;;;;;;;35.55;7.70;;;24.80;83.70;;;;;;5072409;28;21054;-82
2020/12/28 02:02:29;;;;;;;44.25;8.40;;;24.70;83.80;;;;;;5072430;28;20366;-82
2020/12/28 02:04:56;;;;;;;33.80;6.93;;;25.00;83.60;;;;;;5064218;28;20391;-82
2020/12/28 02:07:27;;;;;;;37.35;7.60;;;25.30;83.10;;;;;;5065498;28;20762;-83
2020/12/28 02:09:55;;;;;;;34.13;7.07;;;25.20;81.00;;;;;;5068677;28;20365;-81
2020/12/28 02:12:22;;;;;;;38.22;7.80;;;25.20;82.60;;;;;;5081237;28;20382;-83
2020/12/28 02:14:49;;;;;;;32.88;7.13;;;25.10;83.10;;;;;;5066186;28;20366;-83
2020/12/28 02:17:16;;;;;;;34.90;7.28;;;25.00;82.90;;;;;;5072153;28;20374;-82
2020/12/28 02:19:43;;;;;;;31.65;7.45;;;24.70;82.40;;;;;;5064478;28;20939;-82
2020/12/28 02:22:10;;;;;;;30.90;7.15;;;24.60;83.90;;;;;;5066604;28;20453;-82
2020/12/28 02:24:37;;;;;;;34.50;6.78;;;24.50;84.10;;;;;;5070731;28;20401;-82
2020/12/28 02:27:04;;;;;;;33.33;7.60;;;24.30;83.20;;;;;;5033534;28;20982;-82
2020/12/28 02:29:31;;;;;;;30.00;6.47;;;24.10;85.00;;;;;;5051706;28;20368;-83
2020/12/28 02:31:59;;;;;;;31.90;7.40;;;24.10;84.90;;;;;;5056128;28;20384;-81
2020/12/28 02:34:26;;;;;;;38.53;7.13;;;24.10;85.90;;;;;;5051701;28;20410;-82
2020/12/28 02:36:54;;;;;;;34.70;7.05;;;23.90;86.20;;;;;;5035838;28;20754;-82
2020/12/28 02:39:21;;;;;;;39.20;7.55;;;23.50;86.50;;;;;;5071183;28;20398;-82
2020/12/28 02:41:48;;;;;;;44.90;8.88;;;23.10;88.70;;;;;;5071632;28;20958;-81
2020/12/28 02:44:15;;;;;;;38.60;7.27;;;22.60;90.30;;;;;;5057415;28;20411;-81
2020/12/28 02:46:42;;;;;;;40.90;7.60;;;22.20;90.40;;;;;;5051435;28;20442;-81
2020/12/28 02:49:09;;;;;;;40.63;7.30;;;21.90;90.80;;;;;;5060629;28;20377;-82
2020/12/28 02:51:37;;;;;;;43.30;8.13;;;21.60;91.60;;;;;;5071235;28;20432;-82
2020/12/28 02:54:04;;;;;;;46.47;8.45;;;21.50;92.10;;;;;;5071474;28;20394;-82
2020/12/28 02:56:31;;;;;;;41.58;8.52;;;21.40;92.10;;;;;;5071499;28;20436;-81
2020/12/28 02:58:58;;;;;;;45.70;7.80;;;21.20;92.10;;;;;;5069844;28;20941;-82
2020/12/28 03:01:26;;;;;;;41.20;8.52;;;21.00;92.30;;;;;;5059030;28;20389;-82
2020/12/28 03:03:53;;;;;;;48.55;8.00;;;20.90;92.70;;;;;;5054122;28;20374;-82
2020/12/28 03:06:20;;;;;;;47.70;8.95;;;20.80;93.00;;;;;;5064315;28;20409;-83
2020/12/28 03:08:47;;;;;;;39.75;8.15;;;20.60;93.30;;;;;;5071069;28;20937;-82
2020/12/28 03:11:14;;;;;;;48.38;8.75;;;20.50;93.00;;;;;;5068045;28;20451;-83
2020/12/28 03:13:41;;;;;;;47.13;7.97;;;20.50;92.80;;;;;;5069496;28;20865;-81
2020/12/28 03:16:08;;;;;;;41.42;7.55;;;20.50;93.00;;;;;;5061061;28;20383;-82
2020/12/28 03:18:35;;;;;;;44.38;7.85;;;20.40;93.00;;;;;;5063351;28;20391;-82
2020/12/28 03:21:02;;;;;;;43.17;8.40;;;20.50;92.70;;;;;;5058456;28;20396;-82
2020/12/28 03:23:29;;;;;;;45.30;8.05;;;20.40;92.70;;;;;;5070834;28;20798;-82
2020/12/28 03:25:56;;;;;;;43.90;7.78;;;20.30;93.00;;;;;;5062793;28;20392;-82
2020/12/28 03:28:23;;;;;;;39.90;7.30;;;20.40;92.90;;;;;;5056739;28;20400;-83
2020/12/28 03:30:50;;;;;;;39.70;7.70;;;20.40;92.60;;;;;;5069174;28;20489;-82
2020/12/28 03:33:17;;;;;;;44.40;8.05;;;20.40;92.50;;;;;;5064883;28;20390;-83
2020/12/28 03:35:44;;;;;;;40.30;7.10;;;20.50;92.60;;;;;;5067921;28;20394;-82
2020/12/28 03:38:11;;;;;;;44.28;8.15;;;20.60;91.90;;;;;;5069577;28;20725;-82
2020/12/28 03:40:38;;;;;;;46.83;8.25;;;20.80;92.00;;;;;;5068284;28;20398;-82
2020/12/28 03:43:05;;;;;;;43.40;7.68;;;20.80;91.50;;;;;;5069456;28;20561;-81
2020/12/28 03:45:32;;;;;;;43.67;7.82;;;20.90;91.50;;;;;;5059702;28;20915;-82
2020/12/28 03:47:59;;;;;;;42.33;7.72;;;20.70;91.40;;;;;;5068057;28;21023;-79
2020/12/28 03:50:26;;;;;;;43.70;7.43;;;20.60;91.40;;;;;;5066452;28;20406;-80
2020/12/28 03:52:53;;;;;;;40.45;7.97;;;20.60;91.50;;;;;;5060870;28;20401;-81
2020/12/28 03:55:21;;;;;;;38.78;6.95;;;20.60;91.90;;;;;;5069992;28;20889;-82
2020/12/28 03:57:47;;;;;;;38.58;7.25;;;20.60;91.70;;;;;;5067835;28;20863;-80
2020/12/28 04:00:14;;;;;;;40.38;8.07;;;20.50;91.50;;;;;;5065634;28;20886;-80
2020/12/28 04:02:42;;;;;;;42.92;8.13;;;20.50;91.90;;;;;;5065416;28;20382;-80
2020/12/28 04:05:09;;;;;;;40.45;6.90;;;20.60;91.90;;;;;;5060035;28;20921;-80
2020/12/28 04:07:37;;;;;;;40.35;8.07;;;20.60;91.30;;;;;;5065784;28;20404;-81
2020/12/28 04:10:04;;;;;;;41.85;8.45;;;20.60;91.40;;;;;;5069734;28;20378;-81
2020/12/28 04:12:31;;;;;;;35.45;6.70;;;20.60;91.40;;;;;;5067991;28;20394;-81
2020/12/28 04:14:58;;;;;;;35.72;7.32;;;20.50;91.20;;;;;;5069599;28;20405;-81
2020/12/28 04:17:25;;;;;;;40.08;7.03;;;20.30;91.30;;;;;;5069019;28;20477;-81
2020/12/28 04:19:52;;;;;;;39.47;7.57;;;20.20;92.30;;;;;;5069538;28;20394;-83
2020/12/28 04:22:19;;;;;;;39.92;7.63;;;20.20;92.10;;;;;;5069396;28;20515;-82
2020/12/28 04:24:46;;;;;;;36.70;7.80;;;20.10;91.70;;;;;;5069928;28;20489;-82
2020/12/28 04:27:13;;;;;;;45.63;8.10;;;20.10;92.30;;;;;;5068612;28;20406;-82
2020/12/28 04:29:40;;;;;;;44.50;7.47;;;20.10;91.90;;;;;;5068492;28;20398;-82
2020/12/28 04:32:07;;;;;;;45.03;7.95;;;20.20;91.80;;;;;;5066953;28;20403;-82
2020/12/28 04:34:34;;;;;;;41.50;7.95;;;20.20;91.40;;;;;;5065785;28;20390;-82
2020/12/28 04:37:01;;;;;;;36.80;6.90;;;20.20;91.40;;;;;;5067917;28;20410;-81
2020/12/28 04:39:32;;;;;;;39.40;6.90;;;20.20;91.30;;;;;;5068193;28;21508;-82
2020/12/28 04:41:59;;;;;;;37.17;7.27;;;20.20;91.60;;;;;;5068047;28;20405;-83
2020/12/28 04:44:27;;;;;;;41.00;7.45;;;20.20;91.70;;;;;;5068811;28;20462;-82
2020/12/28 04:46:54;;;;;;;37.20;6.70;;;20.10;91.30;;;;;;5057408;28;20912;-81
2020/12/28 04:49:22;;;;;;;38.58;7.38;;;20.00;91.80;;;;;;5048241;28;20376;-80
2020/12/28 04:51:51;;;;;;;46.80;8.15;;;20.20;91.70;;;;;;5066552;28;20795;-81
2020/12/28 04:54:18;;;;;;;42.13;8.30;;;20.10;91.50;;;;;;5067888;28;20413;-81
2020/12/28 04:56:45;;;;;;;40.72;7.85;;;20.10;91.70;;;;;;5067108;28;20734;-81
2020/12/28 04:59:12;;;;;;;42.90;7.38;;;20.00;91.60;;;;;;5067818;28;20385;-80
2020/12/28 05:01:39;;;;;;;41.83;7.35;;;20.00;91.90;;;;;;5065346;28;20392;-81
2020/12/28 05:04:06;;;;;;;40.85;7.75;;;19.90;91.80;;;;;;5066975;28;20394;-80
2020/12/28 05:06:33;;;;;;;39.42;7.43;;;19.80;92.00;;;;;;5068863;28;20405;-80
2020/12/28 05:09:09;;;;;;;34.53;6.85;;;19.80;92.00;;;;;;5069087;28;20884;-82
2020/12/28 05:11:40;;;;;;;38.85;6.78;;;19.80;92.10;;;;;;5067989;28;20397;-80
2020/12/28 05:14:15;;;;;;;46.80;7.93;;;19.70;91.90;;;;;;5068034;28;20414;-80
2020/12/28 05:16:43;;;;;;;39.40;6.80;;;19.50;92.00;;;;;;5068804;28;20512;-80
2020/12/28 05:19:10;;;;;;;44.53;6.70;;;19.50;92.20;;;;;;5068885;28;20370;-80
2020/12/28 05:21:37;;;;;;;36.65;6.38;;;19.50;92.20;;;;;;5066585;28;20390;-81
2020/12/28 05:24:15;;;;;;;37.77;7.90;;;19.40;92.20;;;;;;5068051;28;20426;-80
2020/12/28 05:26:43;;;;;;;38.00;7.32;;;19.30;92.30;;;;;;5062168;28;20417;-81
2020/12/28 05:29:29;;;;;;;30.08;6.43;;;19.40;92.30;;;;;;5068505;28;20416;-80
2020/12/28 05:31:56;;;;;;;34.90;6.90;;;19.20;92.10;;;;;;5058380;28;20391;-81
2020/12/28 05:34:26;;;;;;;38.90;7.40;;;19.20;92.20;;;;;;5068507;28;20743;-83
2020/12/28 05:36:55;;;;;;;37.50;6.57;;;19.20;92.40;;;;;;5077247;28;20481;-81
2020/12/28 05:39:24;;;;;;;35.85;6.22;;;19.10;92.40;;;;;;5068874;28;20900;-81
2020/12/28 05:42:17;;;;;;;35.50;7.35;;;19.00;92.50;;;;;;5069050;28;20873;-81
2020/12/28 05:44:45;;;;;;;33.55;6.30;;;19.00;92.30;;;;;;5064745;28;20384;-81
2020/12/28 05:47:17;;;;;;;32.47;6.75;;;19.00;92.30;;;;;;5065481;28;20832;-82
2020/12/28 05:49:49;;;;;;;32.30;6.80;;;19.00;92.40;;;;;;5067932;28;20477;-81
2020/12/28 05:52:17;;;;;;;34.03;6.18;;;18.90;92.40;;;;;;5068635;28;20382;-82
2020/12/28 05:54:44;;;;;;;32.22;6.25;;;18.90;92.20;;;;;;5067995;28;20390;-81
2020/12/28 05:57:12;;;;;;;36.13;6.25;;;18.80;92.30;;;;;;5064302;28;20494;-82
2020/12/28 05:59:39;;;;;;;28.63;5.82;;;18.80;92.30;;;;;;5060910;28;20395;-83
2020/12/28 06:02:12;;;;;;;32.95;6.22;;;18.70;92.40;;;;;;5060053;28;21797;-80
2020/12/28 06:04:39;;;;;;;37.22;6.30;;;18.70;92.40;;;;;;5052534;28;20832;-82
2020/12/28 06:07:08;;;;;;;30.15;5.95;;;18.70;92.50;;;;;;5071924;28;20764;-82
2020/12/28 06:09:35;;;;;;;38.97;5.90;;;18.70;92.40;;;;;;5070223;28;20757;-82
2020/12/28 06:12:07;;;;;;;29.65;5.90;;;18.70;92.20;;;;;;5071706;28;20386;-82
2020/12/28 06:14:38;;;;;;;33.70;5.60;;;18.70;92.30;;;;;;5071205;28;20367;-83
2020/12/28 06:17:12;;;;;;;33.03;5.80;;;18.60;92.50;;;;;;5073560;28;20765;-83
2020/12/28 06:19:41;;;;;;;32.97;5.85;;;18.60;92.70;;;;;;5070908;28;20417;-82
2020/12/28 06:22:24;;;;;;;34.75;5.43;;;18.40;93.00;;;;;;5081975;28;20408;-83
2020/12/28 06:25:02;;;;;;;33.53;5.70;;;18.40;93.30;;;;;;5083940;28;20535;-83
2020/12/28 06:27:38;;;;;;;37.50;5.90;;;18.40;93.10;;;;;;5071134;28;20789;-82
2020/12/28 06:30:15;;;;;;;31.10;5.32;;;18.40;93.10;;;;;;5071184;28;20382;-83
2020/12/28 06:32:45;;;;;;;33.75;5.30;;;18.30;93.10;;;;;;5071111;28;20390;-82
2020/12/28 06:35:14;;;;;;;31.67;5.13;;;18.20;93.20;;;;;;5047896;28;20398;-82
2020/12/28 06:37:48;;;;;;;35.35;5.47;;;18.20;93.40;;;;;;5067634;28;20398;-82
2020/12/28 06:40:29;;;;;;;37.63;6.15;;;18.20;93.10;;;;;;5070648;28;20378;-82
2020/12/28 06:43:17;;;;;;;34.42;5.60;;;18.10;93.10;;;;;;5070585;28;20420;-83
2020/12/28 06:45:49;;;;;;;27.30;4.97;;;18.10;93.30;;;;;;5064049;28;20399;-82
2020/12/28 06:48:24;;;;;;;26.95;4.70;;;18.10;93.10;;;;;;5066318;28;20753;-84
2020/12/28 06:50:55;;;;;;;27.98;4.72;;;18.10;93.30;;;;;;5059199;28;20921;-84
2020/12/28 06:53:26;;;;;;;26.05;5.13;;;18.10;93.30;;;;;;5064040;28;20404;-83
2020/12/28 06:55:54;;;;;;;36.22;5.82;;;18.00;93.40;;;;;;5068443;28;21027;-83
2020/12/28 06:58:21;;;;;;;24.25;4.70;;;17.90;94.90;;;;;;5067738;28;20383;-82
2020/12/28 07:00:57;;;;;;;24.27;4.68;;;17.70;95.20;;;;;;5058149;28;20857;-81
2020/12/28 07:03:25;;;;;;;32.77;6.00;;;17.50;95.90;;;;;;5068043;28;20679;-82
2020/12/28 07:05:59;;;;;;;29.00;4.70;;;17.20;97.20;;;;;;5059405;28;20414;-83
2020/12/28 07:08:27;;;;;;;26.58;4.40;;;17.00;97.90;;;;;;5065108;28;20390;-83
2020/12/28 07:10:59;;;;;;;27.40;5.15;;;16.80;98.00;;;;;;5065499;28;20487;-83
2020/12/28 07:13:26;;;;;;;29.73;4.23;;;16.70;97.70;;;;;;5065542;28;20399;-84
2020/12/28 07:16:09;;;;;;;32.38;4.97;;;16.60;98.70;;;;;;5067593;28;20409;-82
2020/12/28 07:18:37;;;;;;;27.35;4.72;;;16.50;99.10;;;;;;5066305;28;20390;-82
2020/12/28 07:21:05;;;;;;;32.17;4.85;;;16.40;99.00;;;;;;5063536;28;20393;-83
2020/12/28 07:23:33;;;;;;;30.17;4.60;;;16.30;99.10;;;;;;5068593;28;20405;-83
2020/12/28 07:26:11;;;;;;;25.17;4.80;;;16.30;99.20;;;;;;5067154;28;20413;-82
2020/12/28 07:28:40;;;;;;;22.43;4.40;;;16.20;99.60;;;;;;5069322;28;20471;-82
2020/12/28 07:31:08;;;;;;;29.42;5.50;;;16.20;99.70;;;;;;5070258;28;20449;-81
2020/12/28 07:33:45;;;;;;;22.15;4.50;;;16.10;99.90;;;;;;5068553;28;20433;-80
2020/12/28 07:36:14;;;;;;;30.23;5.10;;;16.10;99.90;;;;;;5067619;28;20422;-80
2020/12/28 07:38:46;;;;;;;28.10;4.47;;;16.00;99.90;;;;;;5065976;28;20394;-80
2020/12/28 07:41:18;;;;;;;32.28;4.95;;;16.00;99.90;;;;;;5068556;28;20422;-80
2020/12/28 07:43:49;;;;;;;33.35;5.47;;;16.10;99.90;;;;;;5068678;28;20857;-79
2020/12/28 07:46:21;;;;;;;26.67;4.95;;;16.10;99.90;;;;;;5064772;28;20412;-81
2020/12/28 07:48:53;;;;;;;32.50;4.97;;;16.10;99.90;;;;;;5049907;28;20364;-81
2020/12/28 07:51:24;;;;;;;26.70;4.97;;;16.00;99.90;;;;;;5059768;28;20724;-79
2020/12/28 07:54:01;;;;;;;28.73;4.95;;;16.00;99.90;;;;;;5066010;28;20455;-80
2020/12/28 07:56:43;;;;;;;21.45;4.65;;;16.10;99.90;;;;;;5063840;28;20745;-80
2020/12/28 07:59:33;;;;;;;22.90;4.78;;;16.20;99.90;;;;;;5062210;28;20390;-80
2020/12/28 08:02:07;;;;;;;28.83;5.47;;;16.20;99.90;;;;;;5059338;28;20744;-81
2020/12/28 08:04:36;;;;;;;25.10;4.30;;;16.20;99.90;;;;;;5069114;28;20382;-80
2020/12/28 08:07:03;;;;;;;23.58;4.82;;;16.30;99.90;;;;;;5064853;28;20410;-81
2020/12/28 08:09:30;;;;;;;27.15;4.43;;;16.30;99.90;;;;;;5066460;28;20390;-82
2020/12/28 08:11:59;;;;;;;28.47;5.03;;;16.30;99.90;;;;;;5071243;28;20904;-81
2020/12/28 08:14:27;;;;;;;28.75;4.72;;;16.50;99.90;;;;;;5072787;28;20389;-81
2020/12/28 08:16:54;;;;;;;20.23;3.70;;;16.60;99.90;;;;;;5061684;28;20769;-83
2020/12/28 08:19:29;;;;;;;28.88;4.90;;;16.60;99.90;;;;;;5065339;28;20386;-82
2020/12/28 08:21:56;;;;;;;25.60;3.83;;;16.60;99.90;;;;;;5066409;28;20419;-82
2020/12/28 08:24:24;;;;;;;26.13;4.30;;;16.50;99.90;;;;;;5064392;28;20405;-81
2020/12/28 08:26:52;;;;;;;24.17;4.35;;;16.50;99.90;;;;;;5064632;28;20452;-82
2020/12/28 08:29:19;;;;;;;30.52;5.15;;;16.40;99.90;;;;;;5064649;28;20394;-81
2020/12/28 08:31:46;;;;;;;27.02;4.75;;;16.40;99.90;;;;;;5066392;28;20481;-82
2020/12/28 08:34:15;;;;;;;24.42;4.40;;;16.50;99.90;;;;;;5064882;28;20490;-81
2020/12/28 08:36:52;;;;;;;23.98;4.28;;;16.50;99.90;;;;;;5064066;28;20398;-80
2020/12/28 08:39:22;;;;;;;23.52;4.10;;;16.60;99.90;;;;;;5065456;28;20769;-81
2020/12/28 08:41:55;;;;;;;32.35;5.00;;;16.50;99.90;;;;;;5066291;28;20397;-81
2020/12/28 08:44:36;;;;;;;26.23;4.30;;;16.50;99.90;;;;;;5064747;28;20393;-80
2020/12/28 08:47:11;;;;;;;31.67;4.60;;;16.50;99.90;;;;;;5066457;28;20406;-80
2020/12/28 08:49:42;;;;;;;26.45;4.35;;;16.50;99.90;;;;;;5067911;28;20393;-80
2020/12/28 08:52:19;;;;;;;27.48;4.68;;;16.50;99.90;;;;;;5065989;28;20398;-79
2020/12/28 08:54:55;;;;;;;26.63;4.80;;;16.50;99.90;;;;;;5047252;28;20394;-81
2020/12/28 08:57:31;;;;;;;36.13;5.18;;;16.50;99.90;;;;;;5062797;28;20418;-81
2020/12/28 09:00:00;;;;;;;28.73;5.03;;;16.40;99.90;;;;;;5055290;28;20427;-81
2020/12/28 09:02:28;;;;;;;30.88;5.80;;;16.40;99.90;;;;;;5064927;28;20394;-80
2020/12/28 09:04:57;;;;;;;31.88;5.05;;;16.40;99.90;;;;;;5065565;28;20409;-80
2020/12/28 09:07:25;;;;;;;35.08;5.50;;;16.50;99.90;;;;;;5063375;28;20416;-80
2020/12/28 09:09:52;;;;;;;31.93;4.33;;;16.60;99.90;;;;;;5061306;28;20824;-81
2020/12/28 09:12:20;;;;;;;35.72;5.35;;;16.60;99.90;;;;;;5065189;28;20394;-80
2020/12/28 09:14:47;;;;;;;33.58;5.38;;;16.60;99.90;;;;;;5066150;28;20713;-82
2020/12/28 09:17:14;;;;;;;34.92;5.88;;;16.60;99.90;;;;;;5065266;28;20378;-80
2020/12/28 09:19:42;;;;;;;31.25;4.97;;;16.50;99.90;;;;;;5047778;28;20393;-80
2020/12/28 09:22:09;;;;;;;27.75;5.07;;;16.50;99.90;;;;;;5060485;28;21963;-81
2020/12/28 09:24:36;;;;;;;27.30;4.72;;;16.50;99.90;;;;;;5064678;28;20390;-81
2020/12/28 09:27:04;;;;;;;31.95;5.90;;;16.50;99.90;;;;;;5064348;28;20853;-81
2020/12/28 09:29:31;;;;;;;26.50;4.47;;;16.60;99.90;;;;;;5065068;28;20406;-81
2020/12/28 09:31:58;;;;;;;25.10;4.57;;;16.60;99.90;;;;;;5057092;28;20411;-82
2020/12/28 09:34:26;;;;;;;33.22;4.97;;;16.70;99.90;;;;;;5064666;28;20779;-82
2020/12/28 09:37:04;;;;;;;30.02;4.85;;;16.70;99.90;;;;;;5064433;28;20394;-81
2020/12/28 09:39:31;;;;;;;29.88;4.43;;;16.90;99.90;;;;;;5061823;28;20477;-83
2020/12/28 09:41:59;;;;;;;26.10;4.55;;;16.90;99.90;;;;;;5068112;28;20398;-81
2020/12/28 09:44:26;;;;;;;26.40;4.32;;;16.80;99.90;;;;;;5066380;28;20389;-81
2020/12/28 09:46:54;;;;;;;31.25;4.95;;;16.80;99.90;;;;;;5067218;28;20406;-81
2020/12/28 09:49:22;;;;;;;31.02;5.05;;;16.90;99.90;;;;;;5069100;28;20394;-82
2020/12/28 09:51:53;;;;;;;32.92;5.18;;;16.90;99.90;;;;;;5068839;28;20405;-81
2020/12/28 09:54:23;;;;;;;27.35;4.40;;;16.90;99.90;;;;;;5067871;28;20479;-81
2020/12/28 09:56:50;;;;;;;30.75;5.32;;;16.90;99.90;;;;;;5069611;28;20382;-81
2020/12/28 09:59:18;;;;;;;37.38;5.13;;;16.80;99.90;;;;;;5069373;28;20385;-82
2020/12/28 10:01:45;;;;;;;33.97;5.93;;;16.90;99.90;;;;;;5068302;28;20410;-81
2020/12/28 10:04:13;;;;;;;29.33;4.90;;;16.80;99.90;;;;;;5067540;28;20903;-82
2020/12/28 10:06:41;;;;;;;35.58;5.25;;;16.80;99.90;;;;;;5063301;28;20781;-82
2020/12/28 10:09:15;;;;;;;28.77;5.25;;;16.80;99.90;;;;;;5066673;28;20439;-83
2020/12/28 10:11:42;;;;;;;30.17;4.82;;;16.70;99.90;;;;;;5067802;28;20485;-81
2020/12/28 10:14:13;;;;;;;28.77;4.75;;;16.70;99.90;;;;;;5059132;28;20386;-82
2020/12/28 10:16:40;;;;;;;29.40;4.70;;;16.80;99.90;;;;;;5067618;28;20734;-81
2020/12/28 10:19:08;;;;;;;26.85;4.15;;;16.90;99.90;;;;;;5065403;28;20441;-81
2020/12/28 10:21:41;;;;;;;22.23;4.65;;;17.00;99.90;;;;;;5066358;28;20432;-82
2020/12/28 10:24:08;;;;;;;24.98;4.20;;;17.00;99.90;;;;;;5067616;28;20921;-81
2020/12/28 10:26:36;;;;;;;33.45;4.90;;;17.00;99.90;;;;;;5067007;28;20424;-81
2020/12/28 10:29:03;;;;;;;34.60;4.88;;;16.90;99.90;;;;;;5069883;28;20439;-81
2020/12/28 10:31:30;;;;;;;31.98;4.72;;;16.90;99.90;;;;;;5071837;28;20462;-81
2020/12/28 10:33:57;;;;;;;28.85;4.80;;;16.80;99.90;;;;;;5067189;28;20439;-81
2020/12/28 10:36:26;;;;;;;32.70;5.35;;;16.80;99.90;;;;;;5070839;28;21272;-82
2020/12/28 10:38:54;;;;;;;26.45;4.45;;;16.80;99.90;;;;;;5064282;28;20395;-81
2020/12/28 10:41:34;;;;;;;30.33;4.70;;;16.90;99.90;;;;;;5051662;28;20390;-82
2020/12/28 10:44:02;;;;;;;34.70;4.78;;;17.00;99.90;;;;;;5067373;28;20362;-81
2020/12/28 10:46:29;;;;;;;32.38;5.05;;;17.00;99.90;;;;;;5071590;28;20434;-81
2020/12/28 10:48:59;;;;;;;30.23;4.90;;;17.00;99.90;;;;;;5071446;28;20424;-81
2020/12/28 10:51:26;;;;;;;25.88;4.47;;;17.10;99.90;;;;;;5071511;28;20377;-81
2020/12/28 10:53:53;;;;;;;37.20;4.93;;;17.00;99.90;;;;;;5068736;28;20452;-81
2020/12/28 10:56:27;;;;;;;37.03;5.57;;;17.00;99.90;;;;;;5063119;28;20434;-80
2020/12/28 10:58:55;;;;;;;29.90;5.05;;;17.00;99.90;;;;;;5051433;28;20388;-81
2020/12/28 11:01:24;;;;;;;29.25;4.65;;;17.00;99.90;;;;;;5051380;28;20437;-81
2020/12/28 11:03:52;;;;;;;31.13;4.60;;;17.00;99.90;;;;;;5051314;28;20953;-82
2020/12/28 11:06:20;;;;;;;30.00;4.60;;;16.90;99.90;;;;;;5051270;28;20404;-82
2020/12/28 11:08:47;;;;;;;34.93;4.77;;;16.90;99.90;;;;;;5058085;28;20382;-81
2020/12/28 11:11:17;;;;;;;31.33;4.90;;;16.90;99.90;;;;;;5062401;28;20915;-81
2020/12/28 11:13:45;;;;;;;32.38;5.65;;;16.80;99.90;;;;;;5070061;28;20397;-81
2020/12/28 11:16:13;;;;;;;30.45;5.22;;;16.80;99.90;;;;;;5070878;28;20439;-81
2020/12/28 11:18:40;;;;;;;22.80;4.13;;;16.60;99.90;;;;;;5064147;28;20440;-81
2020/12/28 11:21:07;;;;;;;30.20;5.00;;;16.70;99.90;;;;;;5064892;28;20406;-83
2020/12/28 11:26:20;;;;;;;28.45;5.00;;;16.70;99.90;;;;;;5068460;28;20483;-82
2020/12/28 11:28:47;;;;;;;30.60;5.15;;;16.60;99.90;;;;;;5066723;28;20390;-83
2020/12/28 11:31:16;;;;;;;25.02;4.50;;;16.40;99.90;;;;;;5067758;28;20764;-82
2020/12/28 11:33:44;;;;;;;27.85;4.75;;;16.40;99.90;;;;;;5067386;28;20904;-83
2020/12/28 11:36:11;;;;;;;33.05;5.05;;;16.40;99.90;;;;;;5064258;28;20378;-83
2020/12/28 11:38:39;;;;;;;27.20;4.53;;;16.50;99.90;;;;;;5067858;28;20481;-82
2020/12/28 11:41:06;;;;;;;27.02;4.90;;;16.60;99.90;;;;;;5067643;28;20374;-81
2020/12/28 11:43:34;;;;;;;24.88;4.85;;;16.60;99.90;;;;;;5064595;28;20428;-82
2020/12/28 11:46:01;;;;;;;25.63;4.70;;;16.60;99.90;;;;;;5065824;28;20443;-84
2020/12/28 11:48:28;;;;;;;27.50;5.15;;;16.60;99.90;;;;;;5065931;28;20377;-84
2020/12/28 11:50:56;;;;;;;21.23;3.90;;;16.60;99.90;;;;;;5067447;28;20475;-82
2020/12/28 11:53:23;;;;;;;22.48;4.15;;;16.50;99.90;;;;;;5067187;28;20386;-83
2020/12/28 11:56:12;;;;;;;28.05;4.68;;;16.50;99.90;;;;;;5067726;28;20370;-82
2020/12/28 11:58:42;;;;;;;23.95;4.20;;;16.50;99.90;;;;;;5067152;28;20382;-83
2020/12/28 12:01:13;;;;;;;20.98;4.45;;;16.40;99.90;;;;;;5059813;28;20395;-83
2020/12/28 12:03:41;;;;;;;18.75;3.85;;;16.40;99.90;;;;;;5071638;28;20707;-82
2020/12/28 12:06:21;;;;;;;25.08;4.30;;;16.50;99.90;;;;;;5064653;28;20413;-82
2020/12/28 12:11:35;;;;;;;24.77;4.35;;;16.50;99.90;;;;;;5064481;28;20457;-81
2020/12/28 12:14:03;;;;;;;23.83;3.97;;;16.40;99.90;;;;;;5066883;28;20382;-82
2020/12/28 12:16:31;;;;;;;21.15;4.43;;;16.40;99.90;;;;;;5063305;28;20396;-82
2020/12/28 12:18:58;;;;;;;18.17;3.60;;;16.40;99.90;;;;;;5067342;28;20396;-83
2020/12/28 12:21:25;;;;;;;28.40;4.72;;;16.50;99.90;;;;;;5068827;28;20404;-82
2020/12/28 12:23:52;;;;;;;21.08;4.10;;;16.40;99.90;;;;;;5068868;28;20396;-82
2020/12/28 12:26:21;;;;;;;24.38;4.30;;;16.40;99.90;;;;;;5069228;28;20414;-82
2020/12/28 12:28:49;;;;;;;25.08;4.10;;;16.40;99.90;;;;;;5064391;28;20390;-82
2020/12/28 12:31:17;;;;;;;25.20;4.25;;;16.40;99.90;;;;;;5065058;28;20923;-81
2020/12/28 12:33:45;;;;;;;19.98;3.78;;;16.40;99.90;;;;;;5064862;28;20405;-82
2020/12/28 12:36:13;;;;;;;21.38;4.03;;;16.30;99.90;;;;;;5063128;28;20430;-82
2020/12/28 12:38:41;;;;;;;17.98;3.55;;;16.30;99.90;;;;;;5042648;28;20837;-82
2020/12/28 12:41:12;;;;;;;15.60;3.65;;;16.40;99.90;;;;;;5064276;28;20404;-82
2020/12/28 12:43:39;;;;;;;22.95;3.92;;;16.50;99.90;;;;;;5060571;28;20439;-81
2020/12/28 12:46:07;;;;;;;19.58;3.95;;;16.50;99.90;;;;;;5066501;28;20529;-81
2020/12/28 12:48:34;;;;;;;16.30;3.47;;;16.50;99.90;;;;;;5068400;28;20471;-82
2020/12/28 12:51:02;;;;;;;16.35;3.83;;;16.50;99.90;;;;;;5066854;28;20410;-82
2020/12/28 12:53:29;;;;;;;20.55;3.80;;;16.50;99.90;;;;;;5065294;28;20385;-82